sensor_id;sensor_type;location;lat;lon;timestamp;temperature;humidity
13198;DHT22;6664;52.514;13.440;2022-11-20T00:00:41;1.10;99.90
13198;DHT22;6664;52.514;13.440;2022-11-20T00:03:26;1.20;99.90
13198;DHT22;6664;52.514;13.440;2022-11-20T00:06:14;1.20;99.90
13198;DHT22;6664;52.514;13.440;2022-11-20T00:09:01;1.30;99.90
13198;DHT22;6664;52.514;13.440;2022-11-20T00:11:47;1.20;99.90
13198;DHT22;6664;52.514;13.440;2022-11-20T00:14:32;1.20;99.90
13198;DHT22;6664;52.514;13.440;2022-11-20T00:17:18;1.10;99.90
13198;DHT22;6664;52.514;13.440;2022-11-20T00:20:04;1.20;99.90
13198;DHT22;6664;52.514;13.440;2022-11-20T00:22:50;1.20;99.90
13198;DHT22;6664;52.514;13.440;2022-11-20T00:25:36;1.20;99.90
13198;DHT22;6664;52.514;13.440;2022-11-20T00:28:24;1.20;99.90
13198;DHT22;6664;52.514;13.440;2022-11-20T00:31:12;1.10;99.90
13198;DHT22;6664;52.514;13.440;2022-11-20T00:34:00;1.20;99.90
13198;DHT22;6664;52.514;13.440;2022-11-20T00:36:46;1.20;99.90
13198;DHT22;6664;52.514;13.440;2022-11-20T00:39:34;1.20;99.90
13198;DHT22;6664;52.514;13.440;2022-11-20T00:42:20;1.30;99.90
13198;DHT22;6664;52.514;13.440;2022-11-20T00:45:06;1.30;99.90
13198;DHT22;6664;52.514;13.440;2022-11-20T00:47:51;1.30;99.90
13198;DHT22;6664;52.514;13.440;2022-11-20T00:50:37;1.30;99.90
13198;DHT22;6664;52.514;13.440;2022-11-20T00:53:23;1.20;99.90
13198;DHT22;6664;52.514;13.440;2022-11-20T00:56:13;1.20;99.90
13198;DHT22;6664;52.514;13.440;2022-11-20T00:59:00;1.20;99.90
13198;DHT22;6664;52.514;13.440;2022-11-20T01:01:46;1.10;99.90
13198;DHT22;6664;52.514;13.440;2022-11-20T01:04:35;1.20;99.90
13198;DHT22;6664;52.514;13.440;2022-11-20T01:07:22;1.20;99.90
13198;DHT22;6664;52.514;13.440;2022-11-20T01:10:08;1.20;99.90
13198;DHT22;6664;52.514;13.440;2022-11-20T01:12:54;1.10;99.90
13198;DHT22;6664;52.514;13.440;2022-11-20T01:16:12;1.20;99.90
13198;DHT22;6664;52.514;13.440;2022-11-20T01:19:00;1.30;99.90
13198;DHT22;6664;52.514;13.440;2022-11-20T01:21:49;1.30;99.90
13198;DHT22;6664;52.514;13.440;2022-11-20T01:24:35;1.20;99.90
13198;DHT22;6664;52.514;13.440;2022-11-20T01:27:21;1.20;99.90
13198;DHT22;6664;52.514;13.440;2022-11-20T01:30:07;1.20;99.90
13198;DHT22;6664;52.514;13.440;2022-11-20T01:32:55;1.10;99.90
13198;DHT22;6664;52.514;13.440;2022-11-20T01:35:41;1.20;99.90
13198;DHT22;6664;52.514;13.440;2022-11-20T01:38:29;1.30;99.90
13198;DHT22;6664;52.514;13.440;2022-11-20T01:41:18;1.30;99.90
13198;DHT22;6664;52.514;13.440;2022-11-20T01:44:53;1.30;99.90
13198;DHT22;6664;52.514;13.440;2022-11-20T01:47:40;1.30;99.90
13198;DHT22;6664;52.514;13.440;2022-11-20T01:50:30;1.30;99.90
13198;DHT22;6664;52.514;13.440;2022-11-20T01:53:23;1.40;99.90
13198;DHT22;6664;52.514;13.440;2022-11-20T01:56:14;1.40;99.90
13198;DHT22;6664;52.514;13.440;2022-11-20T01:59:04;1.50;99.90
13198;DHT22;6664;52.514;13.440;2022-11-20T02:01:55;1.40;99.90
13198;DHT22;6664;52.514;13.440;2022-11-20T02:04:42;1.40;99.90
13198;DHT22;6664;52.514;13.440;2022-11-20T02:07:30;1.40;99.90
13198;DHT22;6664;52.514;13.440;2022-11-20T02:10:17;1.40;99.90
13198;DHT22;6664;52.514;13.440;2022-11-20T02:13:03;1.40;99.90
13198;DHT22;6664;52.514;13.440;2022-11-20T02:16:11;1.40;99.90
13198;DHT22;6664;52.514;13.440;2022-11-20T02:19:04;1.30;99.90
13198;DHT22;6664;52.514;13.440;2022-11-20T02:24:58;1.20;99.90
13198;DHT22;6664;52.514;13.440;2022-11-20T02:27:48;1.20;99.90
13198;DHT22;6664;52.514;13.440;2022-11-20T02:30:34;1.20;99.90
13198;DHT22;6664;52.514;13.440;2022-11-20T02:33:20;1.20;99.90
13198;DHT22;6664;52.514;13.440;2022-11-20T02:36:28;1.10;99.90
13198;DHT22;6664;52.514;13.440;2022-11-20T02:39:15;1.10;99.90
13198;DHT22;6664;52.514;13.440;2022-11-20T02:42:04;0.90;99.90
13198;DHT22;6664;52.514;13.440;2022-11-20T02:44:49;1.00;99.90
13198;DHT22;6664;52.514;13.440;2022-11-20T02:47:38;1.00;99.90
13198;DHT22;6664;52.514;13.440;2022-11-20T02:50:26;1.00;99.90
13198;DHT22;6664;52.514;13.440;2022-11-20T02:53:11;0.90;99.90
13198;DHT22;6664;52.514;13.440;2022-11-20T02:55:59;0.90;99.90
13198;DHT22;6664;52.514;13.440;2022-11-20T02:58:44;0.90;99.90
13198;DHT22;6664;52.514;13.440;2022-11-20T03:01:30;1.00;99.90
13198;DHT22;6664;52.514;13.440;2022-11-20T03:04:16;1.00;99.90
13198;DHT22;6664;52.514;13.440;2022-11-20T03:07:01;1.10;99.90
13198;DHT22;6664;52.514;13.440;2022-11-20T03:09:47;1.00;99.90
13198;DHT22;6664;52.514;13.440;2022-11-20T03:12:32;1.00;99.90
13198;DHT22;6664;52.514;13.440;2022-11-20T03:15:18;1.10;99.90
13198;DHT22;6664;52.514;13.440;2022-11-20T03:18:04;1.10;99.90
13198;DHT22;6664;52.514;13.440;2022-11-20T03:20:56;1.00;99.90
13198;DHT22;6664;52.514;13.440;2022-11-20T03:23:44;0.90;99.90
13198;DHT22;6664;52.514;13.440;2022-11-20T03:26:30;0.90;99.90
13198;DHT22;6664;52.514;13.440;2022-11-20T03:29:15;0.90;99.90
13198;DHT22;6664;52.514;13.440;2022-11-20T03:32:00;0.90;99.90
13198;DHT22;6664;52.514;13.440;2022-11-20T03:34:46;0.90;99.90
13198;DHT22;6664;52.514;13.440;2022-11-20T03:37:32;0.90;99.90
13198;DHT22;6664;52.514;13.440;2022-11-20T03:40:20;0.90;99.90
13198;DHT22;6664;52.514;13.440;2022-11-20T03:43:05;1.00;99.90
13198;DHT22;6664;52.514;13.440;2022-11-20T03:45:53;1.00;99.90
13198;DHT22;6664;52.514;13.440;2022-11-20T03:48:38;1.00;99.90
13198;DHT22;6664;52.514;13.440;2022-11-20T03:51:29;1.00;99.90
13198;DHT22;6664;52.514;13.440;2022-11-20T03:54:15;1.00;99.90
13198;DHT22;6664;52.514;13.440;2022-11-20T03:57:01;0.90;99.90
13198;DHT22;6664;52.514;13.440;2022-11-20T03:59:46;1.00;99.90
13198;DHT22;6664;52.514;13.440;2022-11-20T04:02:34;1.10;99.90
13198;DHT22;6664;52.514;13.440;2022-11-20T04:05:19;1.10;99.90
13198;DHT22;6664;52.514;13.440;2022-11-20T04:08:05;1.00;99.90
13198;DHT22;6664;52.514;13.440;2022-11-20T04:10:51;1.00;99.90
13198;DHT22;6664;52.514;13.440;2022-11-20T04:13:37;0.90;99.90
13198;DHT22;6664;52.514;13.440;2022-11-20T04:16:27;0.80;99.90
13198;DHT22;6664;52.514;13.440;2022-11-20T04:19:15;0.80;99.90
13198;DHT22;6664;52.514;13.440;2022-11-20T04:22:00;0.80;99.90
13198;DHT22;6664;52.514;13.440;2022-11-20T04:24:48;0.70;99.90
13198;DHT22;6664;52.514;13.440;2022-11-20T04:27:34;0.60;99.90
13198;DHT22;6664;52.514;13.440;2022-11-20T04:30:19;0.70;99.90
13198;DHT22;6664;52.514;13.440;2022-11-20T04:33:05;0.80;99.90
13198;DHT22;6664;52.514;13.440;2022-11-20T04:35:53;0.70;99.90
13198;DHT22;6664;52.514;13.440;2022-11-20T04:38:39;0.70;99.90
13198;DHT22;6664;52.514;13.440;2022-11-20T04:41:30;0.70;99.90
13198;DHT22;6664;52.514;13.440;2022-11-20T04:44:18;0.70;99.90
13198;DHT22;6664;52.514;13.440;2022-11-20T04:47:04;0.60;99.90
13198;DHT22;6664;52.514;13.440;2022-11-20T04:49:50;0.50;99.90
13198;DHT22;6664;52.514;13.440;2022-11-20T04:52:35;0.50;99.90
13198;DHT22;6664;52.514;13.440;2022-11-20T04:55:20;0.50;99.90
13198;DHT22;6664;52.514;13.440;2022-11-20T04:58:06;0.50;99.90
13198;DHT22;6664;52.514;13.440;2022-11-20T05:00:54;0.50;99.90
13198;DHT22;6664;52.514;13.440;2022-11-20T05:03:46;0.60;99.90
13198;DHT22;6664;52.514;13.440;2022-11-20T05:06:32;0.60;99.90
13198;DHT22;6664;52.514;13.440;2022-11-20T05:09:20;0.60;99.90
13198;DHT22;6664;52.514;13.440;2022-11-20T05:12:09;0.60;99.90
13198;DHT22;6664;52.514;13.440;2022-11-20T05:14:55;0.60;99.90
13198;DHT22;6664;52.514;13.440;2022-11-20T05:17:44;0.60;99.90
13198;DHT22;6664;52.514;13.440;2022-11-20T05:20:31;0.60;99.90
13198;DHT22;6664;52.514;13.440;2022-11-20T05:23:17;0.50;99.90
13198;DHT22;6664;52.514;13.440;2022-11-20T05:26:03;0.60;99.90
13198;DHT22;6664;52.514;13.440;2022-11-20T05:28:50;0.60;99.90
13198;DHT22;6664;52.514;13.440;2022-11-20T05:31:38;0.70;99.90
13198;DHT22;6664;52.514;13.440;2022-11-20T05:34:23;0.60;99.90
13198;DHT22;6664;52.514;13.440;2022-11-20T05:37:08;0.60;99.90
13198;DHT22;6664;52.514;13.440;2022-11-20T05:39:56;0.60;99.90
13198;DHT22;6664;52.514;13.440;2022-11-20T05:42:42;0.70;99.90
13198;DHT22;6664;52.514;13.440;2022-11-20T05:45:30;0.70;99.90
13198;DHT22;6664;52.514;13.440;2022-11-20T05:48:15;0.80;99.90
13198;DHT22;6664;52.514;13.440;2022-11-20T05:51:02;0.70;99.90
13198;DHT22;6664;52.514;13.440;2022-11-20T05:53:47;0.70;99.90
13198;DHT22;6664;52.514;13.440;2022-11-20T05:56:33;0.80;99.90
13198;DHT22;6664;52.514;13.440;2022-11-20T05:59:21;0.80;99.90
13198;DHT22;6664;52.514;13.440;2022-11-20T06:02:07;0.80;99.90
13198;DHT22;6664;52.514;13.440;2022-11-20T06:04:52;0.80;99.90
13198;DHT22;6664;52.514;13.440;2022-11-20T06:07:38;0.80;99.90
13198;DHT22;6664;52.514;13.440;2022-11-20T06:10:23;0.80;99.90
13198;DHT22;6664;52.514;13.440;2022-11-20T06:13:09;0.80;99.90
13198;DHT22;6664;52.514;13.440;2022-11-20T06:15:54;0.80;99.90
13198;DHT22;6664;52.514;13.440;2022-11-20T06:18:42;0.80;99.90
13198;DHT22;6664;52.514;13.440;2022-11-20T06:21:28;0.80;99.90
13198;DHT22;6664;52.514;13.440;2022-11-20T06:24:13;0.80;99.90
13198;DHT22;6664;52.514;13.440;2022-11-20T06:26:58;0.80;99.90
13198;DHT22;6664;52.514;13.440;2022-11-20T06:29:44;0.80;99.90
13198;DHT22;6664;52.514;13.440;2022-11-20T06:32:30;0.80;99.90
13198;DHT22;6664;52.514;13.440;2022-11-20T06:35:16;0.70;99.90
13198;DHT22;6664;52.514;13.440;2022-11-20T06:38:01;0.80;99.90
13198;DHT22;6664;52.514;13.440;2022-11-20T06:40:47;0.80;99.90
13198;DHT22;6664;52.514;13.440;2022-11-20T06:43:32;0.80;99.90
13198;DHT22;6664;52.514;13.440;2022-11-20T06:46:19;0.70;99.90
13198;DHT22;6664;52.514;13.440;2022-11-20T06:49:04;0.80;99.90
13198;DHT22;6664;52.514;13.440;2022-11-20T06:51:51;0.80;99.90
13198;DHT22;6664;52.514;13.440;2022-11-20T06:54:38;0.90;99.90
13198;DHT22;6664;52.514;13.440;2022-11-20T06:57:26;0.80;99.90
13198;DHT22;6664;52.514;13.440;2022-11-20T07:00:13;0.90;99.90
13198;DHT22;6664;52.514;13.440;2022-11-20T07:03:03;0.90;99.90
13198;DHT22;6664;52.514;13.440;2022-11-20T07:05:48;1.00;99.90
13198;DHT22;6664;52.514;13.440;2022-11-20T07:08:34;1.00;99.90
13198;DHT22;6664;52.514;13.440;2022-11-20T07:11:20;0.90;99.90
13198;DHT22;6664;52.514;13.440;2022-11-20T07:14:13;0.90;99.90
13198;DHT22;6664;52.514;13.440;2022-11-20T07:16:59;0.90;99.90
13198;DHT22;6664;52.514;13.440;2022-11-20T07:19:45;0.90;99.90
13198;DHT22;6664;52.514;13.440;2022-11-20T07:22:30;1.00;99.90
13198;DHT22;6664;52.514;13.440;2022-11-20T07:25:18;1.00;99.90
13198;DHT22;6664;52.514;13.440;2022-11-20T07:28:05;1.00;99.90
13198;DHT22;6664;52.514;13.440;2022-11-20T07:30:54;1.00;99.90
13198;DHT22;6664;52.514;13.440;2022-11-20T07:33:39;0.90;99.90
13198;DHT22;6664;52.514;13.440;2022-11-20T07:36:29;1.00;99.90
13198;DHT22;6664;52.514;13.440;2022-11-20T07:39:17;1.10;99.90
13198;DHT22;6664;52.514;13.440;2022-11-20T07:42:06;1.20;99.90
13198;DHT22;6664;52.514;13.440;2022-11-20T07:44:52;1.30;99.90
13198;DHT22;6664;52.514;13.440;2022-11-20T07:47:37;1.30;99.90
13198;DHT22;6664;52.514;13.440;2022-11-20T07:50:24;1.30;99.30
13198;DHT22;6664;52.514;13.440;2022-11-20T07:53:09;1.30;98.90
13198;DHT22;6664;52.514;13.440;2022-11-20T07:55:55;1.40;98.60
13198;DHT22;6664;52.514;13.440;2022-11-20T07:58:40;1.40;98.60
13198;DHT22;6664;52.514;13.440;2022-11-20T08:01:26;1.30;97.00
13198;DHT22;6664;52.514;13.440;2022-11-20T08:04:11;1.10;97.50
13198;DHT22;6664;52.514;13.440;2022-11-20T08:07:01;1.40;98.50
13198;DHT22;6664;52.514;13.440;2022-11-20T08:09:49;1.00;96.20
13198;DHT22;6664;52.514;13.440;2022-11-20T08:12:47;1.20;97.20
13198;DHT22;6664;52.514;13.440;2022-11-20T08:15:51;1.30;98.00
13198;DHT22;6664;52.514;13.440;2022-11-20T08:18:37;1.20;97.00
13198;DHT22;6664;52.514;13.440;2022-11-20T08:21:23;1.20;97.50
13198;DHT22;6664;52.514;13.440;2022-11-20T08:24:09;1.30;96.70
13198;DHT22;6664;52.514;13.440;2022-11-20T08:26:58;1.40;97.90
13198;DHT22;6664;52.514;13.440;2022-11-20T08:29:45;1.20;97.00
13198;DHT22;6664;52.514;13.440;2022-11-20T08:32:30;1.30;96.40
13198;DHT22;6664;52.514;13.440;2022-11-20T08:35:21;1.30;96.70
13198;DHT22;6664;52.514;13.440;2022-11-20T08:38:06;1.40;97.30
13198;DHT22;6664;52.514;13.440;2022-11-20T08:40:52;1.50;98.30
13198;DHT22;6664;52.514;13.440;2022-11-20T08:44:02;1.40;97.40
13198;DHT22;6664;52.514;13.440;2022-11-20T08:46:50;1.20;98.60
13198;DHT22;6664;52.514;13.440;2022-11-20T08:49:39;1.20;98.80
13198;DHT22;6664;52.514;13.440;2022-11-20T08:52:24;1.30;99.50
13198;DHT22;6664;52.514;13.440;2022-11-20T08:55:10;1.40;99.90
13198;DHT22;6664;52.514;13.440;2022-11-20T08:57:56;1.60;99.90
13198;DHT22;6664;52.514;13.440;2022-11-20T09:00:44;1.50;99.10
13198;DHT22;6664;52.514;13.440;2022-11-20T09:03:32;1.70;99.60
13198;DHT22;6664;52.514;13.440;2022-11-20T09:06:20;1.80;98.60
13198;DHT22;6664;52.514;13.440;2022-11-20T09:09:05;1.90;96.60
13198;DHT22;6664;52.514;13.440;2022-11-20T09:11:53;1.60;94.50
13198;DHT22;6664;52.514;13.440;2022-11-20T09:14:39;1.50;93.10
13198;DHT22;6664;52.514;13.440;2022-11-20T09:17:25;1.50;92.80
13198;DHT22;6664;52.514;13.440;2022-11-20T09:20:10;1.60;92.40
13198;DHT22;6664;52.514;13.440;2022-11-20T09:22:56;1.50;91.20
13198;DHT22;6664;52.514;13.440;2022-11-20T09:25:42;1.50;91.10
13198;DHT22;6664;52.514;13.440;2022-11-20T09:28:27;1.60;91.60
13198;DHT22;6664;52.514;13.440;2022-11-20T09:31:22;1.40;90.10
13198;DHT22;6664;52.514;13.440;2022-11-20T09:34:08;1.50;90.10
13198;DHT22;6664;52.514;13.440;2022-11-20T09:36:56;1.70;90.00
13198;DHT22;6664;52.514;13.440;2022-11-20T09:39:49;1.90;87.60
13198;DHT22;6664;52.514;13.440;2022-11-20T09:46:29;2.00;85.60
13198;DHT22;6664;52.514;13.440;2022-11-20T09:49:54;1.90;81.40
13198;DHT22;6664;52.514;13.440;2022-11-20T09:53:04;1.80;79.00
13198;DHT22;6664;52.514;13.440;2022-11-20T09:55:55;1.90;81.00
13198;DHT22;6664;52.514;13.440;2022-11-20T09:58:47;2.00;78.10
13198;DHT22;6664;52.514;13.440;2022-11-20T10:01:36;2.00;77.20
13198;DHT22;6664;52.514;13.440;2022-11-20T10:04:24;1.90;74.90
13198;DHT22;6664;52.514;13.440;2022-11-20T10:07:21;1.90;75.10
13198;DHT22;6664;52.514;13.440;2022-11-20T10:10:45;2.00;76.00
13198;DHT22;6664;52.514;13.440;2022-11-20T10:14:07;2.10;76.80
13198;DHT22;6664;52.514;13.440;2022-11-20T10:26:17;2.10;73.50
13198;DHT22;6664;52.514;13.440;2022-11-20T10:29:13;2.10;72.40
13198;DHT22;6664;52.514;13.440;2022-11-20T10:32:04;2.10;72.00
13198;DHT22;6664;52.514;13.440;2022-11-20T10:35:21;2.00;74.20
13198;DHT22;6664;52.514;13.440;2022-11-20T10:38:21;1.90;74.90
13198;DHT22;6664;52.514;13.440;2022-11-20T10:41:13;1.80;75.00
13198;DHT22;6664;52.514;13.440;2022-11-20T10:44:19;2.10;76.00
13198;DHT22;6664;52.514;13.440;2022-11-20T10:47:24;2.30;76.90
13198;DHT22;6664;52.514;13.440;2022-11-20T10:50:16;2.60;75.30
13198;DHT22;6664;52.514;13.440;2022-11-20T11:00:06;2.70;72.20
13198;DHT22;6664;52.514;13.440;2022-11-20T11:02:53;2.50;73.80
13198;DHT22;6664;52.514;13.440;2022-11-20T11:06:31;2.50;71.90
13198;DHT22;6664;52.514;13.440;2022-11-20T11:08:58;2.40;70.30
13198;DHT22;6664;52.514;13.440;2022-11-20T11:11:46;2.40;69.70
13198;DHT22;6664;52.514;13.440;2022-11-20T11:14:45;2.80;70.40
13198;DHT22;6664;52.514;13.440;2022-11-20T11:17:32;3.10;68.70
13198;DHT22;6664;52.514;13.440;2022-11-20T11:20:23;3.20;67.30
13198;DHT22;6664;52.514;13.440;2022-11-20T11:23:32;3.30;67.10
13198;DHT22;6664;52.514;13.440;2022-11-20T11:26:23;3.40;66.90
13198;DHT22;6664;52.514;13.440;2022-11-20T11:29:17;3.40;66.90
13198;DHT22;6664;52.514;13.440;2022-11-20T11:32:14;3.40;66.20
13198;DHT22;6664;52.514;13.440;2022-11-20T11:35:02;3.20;66.10
13198;DHT22;6664;52.514;13.440;2022-11-20T11:37:48;3.10;67.20
13198;DHT22;6664;52.514;13.440;2022-11-20T11:40:37;3.30;65.50
13198;DHT22;6664;52.514;13.440;2022-11-20T11:43:25;3.30;63.90
13198;DHT22;6664;52.514;13.440;2022-11-20T11:46:31;3.40;65.40
13198;DHT22;6664;52.514;13.440;2022-11-20T11:49:20;3.40;63.60
13198;DHT22;6664;52.514;13.440;2022-11-20T11:52:17;3.40;64.00
13198;DHT22;6664;52.514;13.440;2022-11-20T11:55:05;3.40;62.30
13198;DHT22;6664;52.514;13.440;2022-11-20T12:01:03;3.10;63.50
13198;DHT22;6664;52.514;13.440;2022-11-20T12:04:08;2.90;67.40
13198;DHT22;6664;52.514;13.440;2022-11-20T12:07:03;2.60;70.80
13198;DHT22;6664;52.514;13.440;2022-11-20T12:10:28;2.50;72.30
13198;DHT22;6664;52.514;13.440;2022-11-20T12:16:19;2.40;73.80
13198;DHT22;6664;52.514;13.440;2022-11-20T12:19:13;2.30;75.10
13198;DHT22;6664;52.514;13.440;2022-11-20T12:22:31;2.40;76.90
13198;DHT22;6664;52.514;13.440;2022-11-20T12:25:31;2.60;76.70
13198;DHT22;6664;52.514;13.440;2022-11-20T12:28:34;2.70;76.00
13198;DHT22;6664;52.514;13.440;2022-11-20T12:31:39;2.70;75.40
13198;DHT22;6664;52.514;13.440;2022-11-20T12:37:45;2.80;75.60
13198;DHT22;6664;52.514;13.440;2022-11-20T12:47:28;3.20;71.70
13198;DHT22;6664;52.514;13.440;2022-11-20T13:06:19;2.60;69.90
13198;DHT22;6664;52.514;13.440;2022-11-20T13:09:12;2.40;68.30
13198;DHT22;6664;52.514;13.440;2022-11-20T13:12:20;2.20;69.10
13198;DHT22;6664;52.514;13.440;2022-11-20T13:15:37;2.20;68.70
13198;DHT22;6664;52.514;13.440;2022-11-20T13:18:25;2.70;68.70
13198;DHT22;6664;52.514;13.440;2022-11-20T13:21:35;2.90;67.00
13198;DHT22;6664;52.514;13.440;2022-11-20T13:24:23;3.00;67.20
13198;DHT22;6664;52.514;13.440;2022-11-20T13:30:12;3.20;65.60
13198;DHT22;6664;52.514;13.440;2022-11-20T13:36:21;3.20;65.70
13198;DHT22;6664;52.514;13.440;2022-11-20T13:39:08;3.60;64.60
13198;DHT22;6664;52.514;13.440;2022-11-20T13:42:43;3.30;64.50
13198;DHT22;6664;52.514;13.440;2022-11-20T13:45:25;3.20;64.50
13198;DHT22;6664;52.514;13.440;2022-11-20T13:48:23;3.00;63.60
13198;DHT22;6664;52.514;13.440;2022-11-20T13:51:12;2.90;64.90
13198;DHT22;6664;52.514;13.440;2022-11-20T13:54:21;3.10;64.80
13198;DHT22;6664;52.514;13.440;2022-11-20T14:00:29;2.80;65.80
13198;DHT22;6664;52.514;13.440;2022-11-20T14:03:21;2.60;66.20
13198;DHT22;6664;52.514;13.440;2022-11-20T14:06:33;2.50;66.80
13198;DHT22;6664;52.514;13.440;2022-11-20T14:09:33;2.40;66.60
13198;DHT22;6664;52.514;13.440;2022-11-20T14:12:22;2.40;67.00
13198;DHT22;6664;52.514;13.440;2022-11-20T14:15:29;2.40;66.70
13198;DHT22;6664;52.514;13.440;2022-11-20T14:18:21;2.30;67.30
13198;DHT22;6664;52.514;13.440;2022-11-20T14:21:10;2.20;67.40
13198;DHT22;6664;52.514;13.440;2022-11-20T14:24:06;2.20;67.30
13198;DHT22;6664;52.514;13.440;2022-11-20T14:26:54;2.30;67.70
13198;DHT22;6664;52.514;13.440;2022-11-20T14:29:40;2.20;67.00
13198;DHT22;6664;52.514;13.440;2022-11-20T14:32:29;2.10;66.90
13198;DHT22;6664;52.514;13.440;2022-11-20T14:35:54;2.00;67.20
13198;DHT22;6664;52.514;13.440;2022-11-20T14:38:40;2.00;67.60
13198;DHT22;6664;52.514;13.440;2022-11-20T14:41:27;1.90;67.70
13198;DHT22;6664;52.514;13.440;2022-11-20T14:44:16;1.90;68.10
13198;DHT22;6664;52.514;13.440;2022-11-20T14:47:02;1.80;68.50
13198;DHT22;6664;52.514;13.440;2022-11-20T14:49:52;1.80;68.50
13198;DHT22;6664;52.514;13.440;2022-11-20T14:52:39;1.80;68.60
13198;DHT22;6664;52.514;13.440;2022-11-20T14:55:38;1.70;68.40
13198;DHT22;6664;52.514;13.440;2022-11-20T14:58:31;1.70;68.20
13198;DHT22;6664;52.514;13.440;2022-11-20T15:01:26;1.70;68.20
13198;DHT22;6664;52.514;13.440;2022-11-20T15:04:11;1.60;68.40
13198;DHT22;6664;52.514;13.440;2022-11-20T15:07:00;1.60;67.40
13198;DHT22;6664;52.514;13.440;2022-11-20T15:09:46;1.60;67.60
13198;DHT22;6664;52.514;13.440;2022-11-20T15:12:33;1.70;67.60
13198;DHT22;6664;52.514;13.440;2022-11-20T15:15:33;1.70;67.50
13198;DHT22;6664;52.514;13.440;2022-11-20T15:18:31;1.70;67.40
13198;DHT22;6664;52.514;13.440;2022-11-20T15:21:20;1.70;66.70
13198;DHT22;6664;52.514;13.440;2022-11-20T15:24:11;1.80;67.30
13198;DHT22;6664;52.514;13.440;2022-11-20T15:26:57;1.80;67.40
13198;DHT22;6664;52.514;13.440;2022-11-20T15:29:42;1.70;67.40
13198;DHT22;6664;52.514;13.440;2022-11-20T15:32:28;1.80;67.10
13198;DHT22;6664;52.514;13.440;2022-11-20T15:35:17;1.70;67.20
13198;DHT22;6664;52.514;13.440;2022-11-20T15:38:03;1.80;67.30
13198;DHT22;6664;52.514;13.440;2022-11-20T15:40:49;1.80;67.00
13198;DHT22;6664;52.514;13.440;2022-11-20T15:43:34;1.80;67.40
13198;DHT22;6664;52.514;13.440;2022-11-20T15:46:29;1.80;68.00
13198;DHT22;6664;52.514;13.440;2022-11-20T15:49:18;1.80;67.40
13198;DHT22;6664;52.514;13.440;2022-11-20T15:52:04;1.80;67.50
13198;DHT22;6664;52.514;13.440;2022-11-20T15:54:49;1.80;67.40
13198;DHT22;6664;52.514;13.440;2022-11-20T15:57:35;1.90;67.60
13198;DHT22;6664;52.514;13.440;2022-11-20T16:00:21;2.00;67.60
13198;DHT22;6664;52.514;13.440;2022-11-20T16:03:12;2.00;67.60
13198;DHT22;6664;52.514;13.440;2022-11-20T16:05:57;1.80;67.40
13198;DHT22;6664;52.514;13.440;2022-11-20T16:08:45;1.50;67.70
13198;DHT22;6664;52.514;13.440;2022-11-20T16:11:31;1.20;68.60
13198;DHT22;6664;52.514;13.440;2022-11-20T16:14:20;1.00;69.90
13198;DHT22;6664;52.514;13.440;2022-11-20T16:17:24;0.90;70.40
13198;DHT22;6664;52.514;13.440;2022-11-20T16:20:29;0.70;71.00
13198;DHT22;6664;52.514;13.440;2022-11-20T16:23:16;0.60;71.90
13198;DHT22;6664;52.514;13.440;2022-11-20T16:26:14;0.40;72.30
13198;DHT22;6664;52.514;13.440;2022-11-20T16:29:05;0.40;72.60
13198;DHT22;6664;52.514;13.440;2022-11-20T16:31:51;0.30;73.10
13198;DHT22;6664;52.514;13.440;2022-11-20T16:34:37;0.30;73.30
13198;DHT22;6664;52.514;13.440;2022-11-20T16:37:22;0.20;73.30
13198;DHT22;6664;52.514;13.440;2022-11-20T16:40:10;0.10;73.50
13198;DHT22;6664;52.514;13.440;2022-11-20T16:42:57;0.10;74.00
13198;DHT22;6664;52.514;13.440;2022-11-20T16:45:51;0.00;74.60
13198;DHT22;6664;52.514;13.440;2022-11-20T16:48:40;0.00;74.60
13198;DHT22;6664;52.514;13.440;2022-11-20T16:51:26;-0.10;74.60
13198;DHT22;6664;52.514;13.440;2022-11-20T16:54:12;-0.10;74.90
13198;DHT22;6664;52.514;13.440;2022-11-20T16:57:05;-0.10;75.20
13198;DHT22;6664;52.514;13.440;2022-11-20T16:59:51;0.00;75.10
13198;DHT22;6664;52.514;13.440;2022-11-20T17:02:37;0.00;74.60
13198;DHT22;6664;52.514;13.440;2022-11-20T17:05:24;0.20;75.20
13198;DHT22;6664;52.514;13.440;2022-11-20T17:08:10;0.30;74.90
13198;DHT22;6664;52.514;13.440;2022-11-20T17:11:04;0.40;74.60
13198;DHT22;6664;52.514;13.440;2022-11-20T17:13:49;0.50;73.90
13198;DHT22;6664;52.514;13.440;2022-11-20T17:16:36;0.50;73.70
13198;DHT22;6664;52.514;13.440;2022-11-20T17:19:22;0.50;73.80
13198;DHT22;6664;52.514;13.440;2022-11-20T17:22:07;0.40;73.60
13198;DHT22;6664;52.514;13.440;2022-11-20T17:24:52;0.50;73.60
13198;DHT22;6664;52.514;13.440;2022-11-20T17:27:40;0.60;73.60
13198;DHT22;6664;52.514;13.440;2022-11-20T17:30:25;0.70;72.80
13198;DHT22;6664;52.514;13.440;2022-11-20T17:33:14;0.80;72.30
13198;DHT22;6664;52.514;13.440;2022-11-20T17:35:59;0.90;71.80
13198;DHT22;6664;52.514;13.440;2022-11-20T17:38:45;0.90;71.60
13198;DHT22;6664;52.514;13.440;2022-11-20T17:41:33;1.00;71.50
13198;DHT22;6664;52.514;13.440;2022-11-20T17:44:19;1.10;71.10
13198;DHT22;6664;52.514;13.440;2022-11-20T17:47:04;1.20;70.80
13198;DHT22;6664;52.514;13.440;2022-11-20T17:49:50;1.20;70.60
13198;DHT22;6664;52.514;13.440;2022-11-20T17:52:35;1.30;70.20
13198;DHT22;6664;52.514;13.440;2022-11-20T17:55:21;1.30;70.10
13198;DHT22;6664;52.514;13.440;2022-11-20T17:58:06;1.30;69.70
13198;DHT22;6664;52.514;13.440;2022-11-20T18:00:52;1.40;69.60
13198;DHT22;6664;52.514;13.440;2022-11-20T18:03:40;1.40;69.60
13198;DHT22;6664;52.514;13.440;2022-11-20T18:06:27;1.50;69.50
13198;DHT22;6664;52.514;13.440;2022-11-20T18:09:15;1.50;69.60
13198;DHT22;6664;52.514;13.440;2022-11-20T18:12:01;1.50;69.60
13198;DHT22;6664;52.514;13.440;2022-11-20T18:14:47;1.30;69.60
13198;DHT22;6664;52.514;13.440;2022-11-20T18:17:33;1.10;70.10
13198;DHT22;6664;52.514;13.440;2022-11-20T18:20:19;1.00;70.40
13198;DHT22;6664;52.514;13.440;2022-11-20T18:23:15;1.00;70.50
13198;DHT22;6664;52.514;13.440;2022-11-20T18:26:03;0.80;70.90
13198;DHT22;6664;52.514;13.440;2022-11-20T18:28:49;0.80;72.10
13198;DHT22;6664;52.514;13.440;2022-11-20T18:31:37;0.80;71.10
13198;DHT22;6664;52.514;13.440;2022-11-20T18:34:23;0.70;71.50
13198;DHT22;6664;52.514;13.440;2022-11-20T18:37:10;0.70;71.80
13198;DHT22;6664;52.514;13.440;2022-11-20T18:39:58;0.60;72.10
13198;DHT22;6664;52.514;13.440;2022-11-20T18:42:47;0.60;72.10
13198;DHT22;6664;52.514;13.440;2022-11-20T18:46:00;0.50;72.40
13198;DHT22;6664;52.514;13.440;2022-11-20T18:48:48;0.30;72.80
13198;DHT22;6664;52.514;13.440;2022-11-20T18:51:37;0.20;73.30
13198;DHT22;6664;52.514;13.440;2022-11-20T18:54:23;0.20;73.40
13198;DHT22;6664;52.514;13.440;2022-11-20T18:57:09;0.20;73.80
13198;DHT22;6664;52.514;13.440;2022-11-20T18:59:59;0.20;74.10
13198;DHT22;6664;52.514;13.440;2022-11-20T19:02:53;0.10;74.30
13198;DHT22;6664;52.514;13.440;2022-11-20T19:05:38;0.10;74.80
13198;DHT22;6664;52.514;13.440;2022-11-20T19:08:29;-0.10;74.60
13198;DHT22;6664;52.514;13.440;2022-11-20T19:11:18;-0.10;74.70
13198;DHT22;6664;52.514;13.440;2022-11-20T19:14:06;-0.20;75.50